Time;durP1;ratioP1;P1;durP2;ratioP2;P2;SDS_P1;SDS_P2;PMS_P1;PMS_P2;Temp;Humidity;BMP_temperature;BMP_pressure;BME280_temperature;BME280_humidity;BME280_pressure;Samples;Min_cycle;Max_cycle;Signal;HPM_P1;HPM_P2
2020/12/04 00:02:15;;;;;;;21.25;11.20;;;2.40;18.00;;;;;;5003782;28;20042;-68
2020/12/04 00:04:42;;;;;;;19.45;11.57;;;2.40;17.70;;;;;;5004424;28;20046;-67
2020/12/04 00:07:09;;;;;;;25.17;12.23;;;2.40;17.50;;;;;;4995015;28;20057;-68
2020/12/04 00:09:36;;;;;;;20.02;11.25;;;2.40;17.60;;;;;;5000063;28;20887;-68
2020/12/04 00:12:03;;;;;;;20.80;11.27;;;2.40;17.90;;;;;;5004237;28;20065;-68
2020/12/04 00:14:30;;;;;;;18.88;11.30;;;2.40;18.80;;;;;;5001421;28;20418;-67
2020/12/04 00:16:57;;;;;;;19.95;11.27;;;2.40;17.90;;;;;;4996743;28;20061;-67
2020/12/04 00:19:24;;;;;;;20.60;11.23;;;2.40;17.20;;;;;;5003924;28;20436;-68
2020/12/04 00:21:52;;;;;;;20.30;11.02;;;2.40;17.70;;;;;;5000049;28;20100;-68
2020/12/04 00:24:19;;;;;;;19.60;10.82;;;2.50;17.30;;;;;;4985085;28;20045;-67
2020/12/04 00:26:46;;;;;;;19.27;11.10;;;2.40;17.30;;;;;;4995104;28;20057;-68
2020/12/04 00:29:13;;;;;;;19.50;11.23;;;2.40;17.80;;;;;;4998202;28;20073;-68
2020/12/04 00:31:40;;;;;;;20.40;12.63;;;2.30;17.90;;;;;;4999872;28;20137;-68
2020/12/04 00:34:08;;;;;;;24.80;12.70;;;2.30;18.20;;;;;;5001104;28;20050;-68
2020/12/04 00:36:37;;;;;;;18.65;11.23;;;2.40;18.00;;;;;;4996511;28;20056;-68
2020/12/04 00:39:04;;;;;;;21.17;11.38;;;2.30;17.30;;;;;;4999130;28;20072;-68
2020/12/04 00:41:31;;;;;;;21.42;11.93;;;2.30;17.90;;;;;;5001516;28;20049;-68
2020/12/04 00:43:58;;;;;;;21.80;11.55;;;2.30;18.50;;;;;;5002675;28;20046;-68
2020/12/04 00:46:25;;;;;;;20.92;11.50;;;2.20;19.20;;;;;;4999571;28;20709;-68
2020/12/04 00:48:51;;;;;;;23.02;13.48;;;2.20;18.70;;;;;;4997049;28;20061;-68
2020/12/04 00:51:18;;;;;;;23.77;12.45;;;2.20;19.40;;;;;;5002863;28;20491;-68
2020/12/04 00:53:46;;;;;;;24.13;12.52;;;2.20;19.10;;;;;;4999649;28;20050;-68
2020/12/04 00:56:16;;;;;;;19.13;11.77;;;2.10;18.90;;;;;;4998773;28;20483;-68
2020/12/04 00:58:45;;;;;;;19.40;11.68;;;2.10;19.30;;;;;;4995373;28;20061;-69
2020/12/04 01:01:12;;;;;;;20.88;12.52;;;2.20;18.50;;;;;;5001613;28;20046;-67
2020/12/04 01:03:39;;;;;;;19.02;11.15;;;2.20;19.20;;;;;;5002369;28;20124;-68
2020/12/04 01:06:06;;;;;;;24.02;12.70;;;2.10;18.90;;;;;;4996923;28;20579;-68
2020/12/04 01:08:34;;;;;;;23.80;13.25;;;2.10;19.00;;;;;;4994193;28;20496;-70
2020/12/04 01:11:02;;;;;;;21.92;12.10;;;2.10;18.80;;;;;;5009444;28;20053;-69
2020/12/04 01:13:30;;;;;;;20.67;11.77;;;2.10;18.50;;;;;;5003920;28;20050;-67
2020/12/04 01:15:57;;;;;;;23.38;11.82;;;2.10;18.40;;;;;;5003914;28;20527;-66
2020/12/04 01:18:24;;;;;;;21.02;11.95;;;2.10;18.30;;;;;;4994811;28;20054;-68
2020/12/04 01:20:51;;;;;;;21.98;12.27;;;2.20;17.70;;;;;;4999016;28;20054;-66
2020/12/04 01:23:18;;;;;;;25.23;12.30;;;2.20;18.20;;;;;;5004691;28;20046;-70
2020/12/04 01:25:45;;;;;;;23.98;11.77;;;2.20;18.20;;;;;;5006501;28;20065;-66
2020/12/04 01:28:12;;;;;;;23.48;12.15;;;2.20;18.00;;;;;;4998269;28;20054;-67
2020/12/04 01:30:39;;;;;;;22.88;12.00;;;2.10;18.70;;;;;;5004371;28;20096;-66
2020/12/04 01:33:06;;;;;;;22.30;12.80;;;2.10;18.90;;;;;;5006800;28;20046;-67
2020/12/04 01:35:33;;;;;;;20.38;11.88;;;2.10;18.60;;;;;;5006078;28;20048;-67
2020/12/04 01:38:00;;;;;;;21.98;12.43;;;2.10;19.20;;;;;;4998505;28;20056;-70
2020/12/04 01:40:27;;;;;;;22.70;12.50;;;2.10;19.20;;;;;;5007394;28;20054;-67
2020/12/04 01:42:54;;;;;;;22.63;11.63;;;2.10;19.40;;;;;;5009759;28;20060;-66
2020/12/04 01:45:21;;;;;;;23.58;11.32;;;2.20;18.60;;;;;;5006207;28;20054;-67
2020/12/04 01:47:48;;;;;;;21.60;12.20;;;2.20;18.20;;;;;;4997684;28;20050;-70
2020/12/04 01:50:15;;;;;;;19.10;10.73;;;2.20;18.50;;;;;;5004403;28;20049;-67
2020/12/04 01:52:42;;;;;;;22.98;12.10;;;2.10;18.40;;;;;;5006353;28;20058;-67
2020/12/04 01:55:10;;;;;;;20.27;11.15;;;2.10;18.50;;;;;;5006966;28;20050;-66
2020/12/04 01:57:42;;;;;;;21.30;11.25;;;2.20;18.60;;;;;;4993271;28;20054;-72
2020/12/04 02:00:09;;;;;;;21.42;12.45;;;2.20;18.90;;;;;;5002672;28;20081;-67
2020/12/04 02:02:37;;;;;;;22.35;11.93;;;2.20;18.60;;;;;;5004762;28;20582;-66
2020/12/04 02:05:04;;;;;;;21.63;11.43;;;2.10;18.80;;;;;;5006168;28;20050;-65
2020/12/04 02:07:39;;;;;;;20.23;11.27;;;2.20;18.40;;;;;;4988803;28;20056;-67
2020/12/04 02:10:13;;;;;;;20.38;11.18;;;2.20;18.10;;;;;;4999733;28;20141;-66
2020/12/04 02:12:41;;;;;;;23.58;12.50;;;2.30;17.70;;;;;;5005591;28;20438;-65
2020/12/04 02:15:10;;;;;;;20.73;11.93;;;2.20;17.50;;;;;;5001661;28;20074;-72
2020/12/04 02:17:39;;;;;;;19.42;11.15;;;2.30;17.20;;;;;;4995039;28;20060;-67
2020/12/04 02:20:06;;;;;;;20.50;11.13;;;2.30;17.80;;;;;;5007178;28;20049;-70
2020/12/04 02:22:37;;;;;;;19.48;11.25;;;2.30;17.60;;;;;;5001234;28;20064;-67
2020/12/04 02:25:07;;;;;;;21.17;12.18;;;2.30;17.50;;;;;;5006759;28;20055;-66
2020/12/04 02:27:34;;;;;;;17.25;10.55;;;2.20;18.10;;;;;;4992894;28;20049;-68
2020/12/04 02:30:03;;;;;;;22.63;11.35;;;2.20;18.20;;;;;;5005515;28;20049;-66
2020/12/04 02:32:30;;;;;;;21.80;11.27;;;2.20;17.80;;;;;;4997063;28;20050;-68
2020/12/04 02:34:57;;;;;;;20.95;11.48;;;2.20;17.80;;;;;;5003383;28;20053;-67
2020/12/04 02:37:24;;;;;;;20.75;11.88;;;2.30;17.60;;;;;;4995447;28;20120;-69
2020/12/04 02:39:57;;;;;;;18.88;10.80;;;2.20;18.20;;;;;;5001378;28;20115;-65
2020/12/04 02:42:24;;;;;;;20.23;11.48;;;2.30;18.00;;;;;;5002838;28;20058;-66
2020/12/04 02:44:51;;;;;;;20.77;11.25;;;2.20;18.10;;;;;;5006356;28;20046;-66
2020/12/04 02:47:18;;;;;;;20.90;11.10;;;2.20;18.30;;;;;;4996004;28;20057;-66
2020/12/04 02:49:45;;;;;;;19.83;11.35;;;2.30;17.60;;;;;;5002478;28;20054;-66
2020/12/04 02:52:12;;;;;;;20.58;11.88;;;2.30;18.40;;;;;;5002759;28;20104;-64
2020/12/04 02:54:39;;;;;;;23.42;11.85;;;2.30;17.50;;;;;;4999881;28;20042;-67
2020/12/04 02:57:06;;;;;;;23.92;11.73;;;2.30;18.30;;;;;;4994259;28;20060;-66
2020/12/04 02:59:33;;;;;;;21.15;11.38;;;2.20;18.30;;;;;;5000356;28;20073;-69
2020/12/04 03:02:00;;;;;;;19.55;11.00;;;2.20;19.00;;;;;;5001391;28;20416;-70
2020/12/04 03:04:27;;;;;;;22.23;11.70;;;2.20;18.80;;;;;;4997674;28;20049;-68
2020/12/04 03:06:54;;;;;;;22.05;12.57;;;2.20;18.90;;;;;;4988648;28;20803;-69
2020/12/04 03:09:21;;;;;;;21.33;10.38;;;2.30;19.10;;;;;;5000534;28;20053;-69
2020/12/04 03:11:48;;;;;;;21.63;12.27;;;2.20;19.20;;;;;;4999507;28;20050;-69
2020/12/04 03:14:15;;;;;;;17.85;10.95;;;2.10;19.40;;;;;;4999941;28;20408;-69
2020/12/04 03:16:42;;;;;;;19.13;10.60;;;2.20;19.50;;;;;;4990047;28;20894;-69
2020/12/04 03:19:09;;;;;;;23.98;11.57;;;2.10;19.40;;;;;;4997094;28;20054;-67
2020/12/04 03:21:36;;;;;;;22.85;11.63;;;2.10;19.90;;;;;;4999100;28;20064;-70
2020/12/04 03:24:03;;;;;;;21.48;11.02;;;2.10;19.70;;;;;;4998913;28;20152;-67
2020/12/04 03:26:30;;;;;;;20.17;11.45;;;2.10;19.50;;;;;;4994291;28;20526;-69
2020/12/04 03:28:57;;;;;;;21.23;11.82;;;2.10;19.60;;;;;;4992264;28;20046;-69
2020/12/04 03:31:24;;;;;;;22.02;11.45;;;2.10;19.10;;;;;;5003296;28;20061;-67
2020/12/04 03:33:51;;;;;;;21.42;12.18;;;2.20;19.20;;;;;;5001352;28;20064;-66
2020/12/04 03:36:18;;;;;;;16.70;10.25;;;2.20;19.20;;;;;;5001090;28;20045;-67
2020/12/04 03:38:45;;;;;;;21.00;11.40;;;2.20;19.10;;;;;;4994428;28;20050;-69
2020/12/04 03:41:12;;;;;;;21.58;11.73;;;2.20;18.80;;;;;;5005829;28;20105;-69
2020/12/04 03:43:40;;;;;;;20.98;10.60;;;2.20;19.30;;;;;;5002966;28;20129;-67
2020/12/04 03:46:09;;;;;;;20.42;11.43;;;2.20;19.50;;;;;;5001271;28;20056;-65
2020/12/04 03:48:37;;;;;;;20.17;11.93;;;2.20;19.80;;;;;;4995025;28;20054;-68
2020/12/04 03:51:05;;;;;;;20.15;11.35;;;2.20;19.30;;;;;;5003357;28;20052;-69
2020/12/04 03:53:32;;;;;;;21.08;12.43;;;2.20;19.50;;;;;;5000865;28;20058;-67
2020/12/04 03:55:59;;;;;;;20.45;11.15;;;2.30;19.50;;;;;;5003192;28;20080;-66
2020/12/04 03:58:26;;;;;;;23.02;11.70;;;2.30;19.90;;;;;;4996552;28;20068;-67
2020/12/04 04:00:54;;;;;;;18.60;11.10;;;2.30;20.00;;;;;;5000413;28;20053;-70
2020/12/04 04:03:21;;;;;;;18.48;11.05;;;2.30;19.80;;;;;;5004494;28;20053;-69
2020/12/04 04:05:49;;;;;;;22.85;11.23;;;2.30;19.90;;;;;;5001771;28;20535;-67
2020/12/04 04:08:16;;;;;;;18.38;10.40;;;2.40;19.50;;;;;;4992174;28;20054;-69
2020/12/04 04:10:43;;;;;;;21.50;10.52;;;2.40;18.90;;;;;;4997204;28;20495;-67
2020/12/04 04:13:09;;;;;;;17.42;10.10;;;2.50;18.90;;;;;;5002995;28;20053;-69
2020/12/04 04:15:37;;;;;;;21.02;11.52;;;2.50;17.50;;;;;;4999422;28;20041;-69
2020/12/04 04:18:03;;;;;;;27.65;13.13;;;2.60;18.40;;;;;;4992454;28;20148;-69
2020/12/04 04:20:31;;;;;;;20.25;10.93;;;2.60;17.60;;;;;;4998334;28;20576;-68
2020/12/04 04:22:59;;;;;;;20.35;10.98;;;2.60;17.20;;;;;;5003439;28;20042;-68
2020/12/04 04:25:26;;;;;;;22.42;11.68;;;2.60;16.90;;;;;;5003653;28;20050;-67
2020/12/04 04:27:53;;;;;;;21.10;11.02;;;2.60;16.80;;;;;;4990759;28;20479;-67
2020/12/04 04:30:20;;;;;;;21.52;11.90;;;2.60;16.50;;;;;;4999508;28;20052;-66
2020/12/04 04:32:46;;;;;;;17.52;9.93;;;2.70;16.40;;;;;;4999114;28;20050;-69
2020/12/04 04:35:13;;;;;;;20.85;10.77;;;2.70;15.60;;;;;;5003166;28;20049;-68
2020/12/04 04:37:42;;;;;;;21.80;11.35;;;2.70;15.40;;;;;;4994583;28;20053;-69
2020/12/04 04:40:10;;;;;;;21.77;11.23;;;2.70;16.70;;;;;;5000589;28;20366;-67
2020/12/04 04:42:38;;;;;;;20.40;11.18;;;2.70;16.60;;;;;;5001056;28;20073;-69
2020/12/04 04:45:04;;;;;;;19.52;11.52;;;2.60;16.30;;;;;;5000779;28;20046;-68
2020/12/04 04:47:36;;;;;;;17.77;10.35;;;2.70;16.70;;;;;;5003821;28;20054;-68
2020/12/04 04:50:03;;;;;;;20.00;10.98;;;2.70;16.60;;;;;;5002632;28;20057;-69
2020/12/04 04:52:31;;;;;;;20.83;12.35;;;2.70;16.50;;;;;;5004392;28;20045;-68
2020/12/04 04:54:58;;;;;;;23.00;12.63;;;2.70;16.40;;;;;;5004450;28;20050;-68
2020/12/04 04:57:25;;;;;;;19.80;11.43;;;2.80;15.90;;;;;;5002969;28;20475;-68
2020/12/04 05:03:40;;;;;;;21.60;11.07;;;2.80;16.60;;;;;;5001018;28;20105;-67
2020/12/04 05:06:07;;;;;;;24.20;11.85;;;2.70;16.90;;;;;;5001881;28;20122;-68
2020/12/04 05:08:34;;;;;;;19.85;12.00;;;2.70;17.00;;;;;;5003457;28;20050;-67
2020/12/04 05:11:08;;;;;;;26.35;12.52;;;2.70;17.40;;;;;;5002858;28;20042;-69
2020/12/04 05:13:36;;;;;;;20.45;11.77;;;2.70;16.70;;;;;;5004091;28;20512;-67
2020/12/04 05:16:03;;;;;;;24.02;12.55;;;2.70;17.50;;;;;;5003920;28;20037;-67
2020/12/04 05:18:30;;;;;;;21.63;11.52;;;2.70;17.00;;;;;;5001854;28;20050;-67
2020/12/04 05:20:58;;;;;;;17.75;11.20;;;2.80;16.40;;;;;;5003172;28;20471;-67
2020/12/04 05:23:27;;;;;;;24.15;12.45;;;2.80;16.80;;;;;;5002462;28;20056;-68
2020/12/04 05:25:57;;;;;;;17.52;10.93;;;2.80;16.40;;;;;;5001850;28;20388;-67
2020/12/04 05:28:26;;;;;;;24.58;11.77;;;2.80;16.60;;;;;;5000366;28;20065;-67
2020/12/04 05:31:05;;;;;;;22.92;12.15;;;2.80;15.70;;;;;;5002917;28;20050;-68
2020/12/04 05:33:32;;;;;;;24.67;12.20;;;2.90;16.30;;;;;;5000397;28;20137;-68
2020/12/04 05:36:00;;;;;;;20.33;11.43;;;2.90;16.80;;;;;;5003549;28;20043;-67
2020/12/04 05:38:27;;;;;;;19.83;11.77;;;2.90;16.50;;;;;;5001349;28;20122;-68
2020/12/04 05:41:04;;;;;;;21.27;11.45;;;2.90;16.20;;;;;;5002537;28;20060;-67
2020/12/04 05:43:32;;;;;;;20.50;11.07;;;2.90;15.10;;;;;;5000873;28;20065;-68
2020/12/04 05:46:17;;;;;;;22.17;12.15;;;2.90;15.70;;;;;;5002830;28;20152;-69
2020/12/04 05:48:54;;;;;;;19.60;10.73;;;3.00;15.50;;;;;;4999136;28;20555;-68
2020/12/04 05:51:23;;;;;;;23.08;11.38;;;3.00;14.90;;;;;;5003516;28;20129;-69
2020/12/04 05:53:51;;;;;;;20.33;11.05;;;3.10;14.90;;;;;;5000756;28;20060;-68
2020/12/04 05:56:18;;;;;;;22.25;11.07;;;3.00;15.30;;;;;;5002085;28;20092;-67
2020/12/04 05:58:47;;;;;;;22.23;10.77;;;3.10;14.60;;;;;;5002422;28;20129;-69
2020/12/04 06:01:16;;;;;;;21.52;10.98;;;3.10;14.20;;;;;;4998654;28;20068;-67
2020/12/04 06:03:44;;;;;;;21.20;10.75;;;3.10;14.40;;;;;;5001376;28;20060;-68
2020/12/04 06:06:23;;;;;;;20.52;11.10;;;3.10;14.10;;;;;;5002150;28;20045;-67
2020/12/04 06:08:50;;;;;;;21.70;10.73;;;3.00;14.80;;;;;;4999484;28;20455;-68
2020/12/04 06:11:18;;;;;;;21.27;10.57;;;3.00;14.80;;;;;;5002285;28;20053;-67
2020/12/04 06:13:45;;;;;;;20.42;11.15;;;2.90;15.60;;;;;;5002172;28;20049;-67
2020/12/04 06:16:13;;;;;;;21.63;11.90;;;2.90;15.80;;;;;;5003271;28;20042;-68
2020/12/04 06:18:41;;;;;;;22.00;11.65;;;2.90;15.90;;;;;;5001530;28;20053;-67
2020/12/04 06:21:08;;;;;;;21.00;11.48;;;2.90;15.70;;;;;;5003540;28;20047;-67
2020/12/04 06:23:35;;;;;;;17.45;10.35;;;2.90;15.80;;;;;;5002803;28;20068;-68
2020/12/04 06:26:08;;;;;;;20.38;10.15;;;2.90;15.90;;;;;;5001875;28;20137;-67
2020/12/04 06:28:38;;;;;;;22.42;10.07;;;2.90;15.40;;;;;;4999435;28;20054;-67
2020/12/04 06:31:08;;;;;;;19.42;9.68;;;2.90;15.80;;;;;;5002714;28;20046;-68
2020/12/04 06:33:39;;;;;;;24.27;11.07;;;2.90;16.20;;;;;;5001528;28;20132;-68
2020/12/04 06:36:08;;;;;;;21.98;10.00;;;2.90;16.20;;;;;;5000226;28;20129;-68
2020/12/04 06:38:48;;;;;;;23.33;9.98;;;2.90;16.70;;;;;;5000242;28;20424;-68
2020/12/04 06:41:23;;;;;;;17.60;10.13;;;2.90;16.60;;;;;;5002567;28;20049;-67
2020/12/04 06:43:52;;;;;;;22.52;10.02;;;2.90;16.60;;;;;;5001629;28;20054;-67
2020/12/04 06:46:40;;;;;;;19.05;10.15;;;3.00;17.00;;;;;;5001578;28;20061;-67
2020/12/04 06:49:12;;;;;;;21.27;10.85;;;2.90;17.00;;;;;;4998820;28;20050;-67
2020/12/04 06:51:41;;;;;;;25.02;10.77;;;3.00;16.60;;;;;;5000638;28;20053;-68
2020/12/04 06:54:08;;;;;;;19.60;10.23;;;3.00;16.00;;;;;;5001479;28;20046;-68
2020/12/04 06:56:35;;;;;;;24.98;11.13;;;3.10;14.90;;;;;;4999796;28;20052;-67
2020/12/04 06:59:03;;;;;;;21.63;11.40;;;3.10;14.90;;;;;;4999705;28;20426;-68
2020/12/04 07:01:30;;;;;;;25.10;10.45;;;3.10;14.90;;;;;;5001214;28;20046;-69
2020/12/04 07:04:04;;;;;;;;;;;3.20;15.00;;;;;;4997877;28;20046;-68
2020/12/04 07:06:31;;;;;;;23.80;11.27;;;3.20;15.10;;;;;;4999760;28;19921;-67
2020/12/04 07:09:02;;;;;;;19.65;10.60;;;3.20;15.00;;;;;;5001987;28;20077;-68
2020/12/04 07:11:30;;;;;;;22.58;10.82;;;3.10;14.90;;;;;;5002121;28;20148;-68
2020/12/04 07:13:57;;;;;;;20.85;11.85;;;3.10;15.40;;;;;;5000983;28;20050;-68
2020/12/04 07:16:24;;;;;;;22.55;11.55;;;3.20;15.40;;;;;;4998985;28;20053;-69
2020/12/04 07:18:53;;;;;;;27.85;12.63;;;3.20;15.10;;;;;;5000740;28;20526;-69
2020/12/04 07:21:20;;;;;;;24.98;12.07;;;3.20;15.00;;;;;;4997935;28;20050;-68
2020/12/04 07:23:47;;;;;;;33.00;12.75;;;3.20;15.50;;;;;;5000259;28;20045;-69
2020/12/04 07:26:17;;;;;;;22.88;11.60;;;3.30;15.50;;;;;;4999418;28;20518;-68
2020/12/04 07:28:45;;;;;;;23.33;11.35;;;3.20;15.00;;;;;;4995737;28;20046;-68
2020/12/04 07:31:17;;;;;;;23.10;11.80;;;3.30;15.00;;;;;;5000165;28;20046;-67
2020/12/04 07:33:51;;;;;;;24.50;10.48;;;3.30;14.40;;;;;;4999759;28;20125;-69
2020/12/04 07:36:19;;;;;;;26.00;11.55;;;3.40;13.40;;;;;;5001262;28;20562;-69
2020/12/04 07:38:50;;;;;;;22.25;10.35;;;3.40;13.60;;;;;;4998701;28;20097;-68
2020/12/04 07:41:36;;;;;;;21.08;10.93;;;3.40;13.20;;;;;;4997252;28;20042;-67
2020/12/04 07:44:06;;;;;;;30.33;11.10;;;3.40;12.80;;;;;;5000974;28;20056;-69
2020/12/04 07:46:34;;;;;;;22.48;11.43;;;3.50;13.50;;;;;;4999863;28;20061;-68
2020/12/04 07:49:13;;;;;;;20.67;11.32;;;3.50;13.20;;;;;;5002105;28;20054;-67
2020/12/04 07:51:41;;;;;;;28.52;11.77;;;3.50;13.30;;;;;;5001343;28;20046;-67
2020/12/04 07:54:20;;;;;;;19.40;11.20;;;3.40;13.50;;;;;;5000968;28;20177;-68
2020/12/04 07:56:51;;;;;;;22.85;11.85;;;3.40;13.30;;;;;;4999023;28;20054;-68
2020/12/04 07:59:23;;;;;;;22.92;11.80;;;3.30;13.40;;;;;;5000483;28;20746;-68
2020/12/04 08:01:50;;;;;;;23.20;10.40;;;3.40;13.30;;;;;;5000230;28;20408;-68
2020/12/04 08:04:18;;;;;;;21.42;10.93;;;3.30;13.10;;;;;;5001613;28;21278;-68
2020/12/04 08:06:46;;;;;;;22.20;11.18;;;3.40;13.50;;;;;;4998969;28;20042;-69
2020/12/04 08:09:14;;;;;;;18.63;9.73;;;3.40;12.80;;;;;;5001197;28;20061;-69
2020/12/04 08:11:52;;;;;;;21.60;11.32;;;3.40;12.80;;;;;;5000535;28;20484;-68
2020/12/04 08:14:25;;;;;;;19.88;10.82;;;3.40;13.40;;;;;;5000718;28;20050;-67
2020/12/04 08:16:58;;;;;;;28.63;11.95;;;3.50;13.40;;;;;;4996961;28;20046;-65
2020/12/04 08:19:29;;;;;;;24.08;10.45;;;3.50;12.70;;;;;;4995565;28;20057;-67
2020/12/04 08:22:01;;;;;;;19.60;10.75;;;3.50;12.80;;;;;;4995605;28;20101;-66
2020/12/04 08:24:29;;;;;;;25.88;10.80;;;3.50;13.90;;;;;;4995123;28;20046;-66
2020/12/04 08:27:09;;;;;;;20.25;11.13;;;3.60;12.90;;;;;;4994894;28;20053;-66
2020/12/04 08:29:38;;;;;;;22.30;11.25;;;3.50;13.00;;;;;;4995375;28;20416;-65
2020/12/04 08:32:19;;;;;;;18.00;9.07;;;3.60;12.70;;;;;;4994941;28;20050;-65
2020/12/04 08:34:48;;;;;;;16.73;9.73;;;3.60;12.10;;;;;;4995196;28;20050;-66
2020/12/04 08:37:16;;;;;;;18.58;9.27;;;3.80;11.70;;;;;;4994829;28;20046;-66
2020/12/04 08:39:46;;;;;;;13.45;8.35;;;3.80;12.00;;;;;;4994959;28;20054;-65
2020/12/04 08:42:29;;;;;;;22.88;9.70;;;3.80;10.90;;;;;;4994796;28;20058;-65
2020/12/04 08:45:05;;;;;;;17.25;9.07;;;3.80;11.80;;;;;;4994895;28;20061;-67
2020/12/04 08:47:38;;;;;;;22.33;9.10;;;3.90;10.60;;;;;;4995505;28;20556;-69
2020/12/04 08:50:12;;;;;;;15.60;8.10;;;3.90;10.40;;;;;;5014370;28;20064;-66
2020/12/04 08:52:44;;;;;;;15.77;8.25;;;3.90;9.00;;;;;;5014262;28;20050;-67
2020/12/04 08:55:13;;;;;;;19.75;8.43;;;3.90;9.10;;;;;;5014142;28;20064;-67
2020/12/04 08:57:41;;;;;;;23.88;9.02;;;3.90;9.60;;;;;;5013729;28;20050;-66
2020/12/04 09:00:11;;;;;;;26.58;9.35;;;4.00;9.80;;;;;;5013674;28;20488;-67
2020/12/04 09:02:39;;;;;;;19.13;8.90;;;4.10;9.70;;;;;;5014227;28;20061;-68
2020/12/04 09:05:07;;;;;;;14.82;8.63;;;4.10;9.60;;;;;;5013626;28;20623;-66
2020/12/04 09:07:35;;;;;;;19.27;9.32;;;4.00;9.10;;;;;;5013466;28;20518;-67
2020/12/04 09:10:03;;;;;;;25.48;9.43;;;4.10;9.40;;;;;;5014000;28;20076;-67
2020/12/04 09:12:30;;;;;;;18.52;8.75;;;4.20;8.50;;;;;;5013535;28;20056;-66
2020/12/04 09:14:58;;;;;;;22.33;10.23;;;4.20;8.50;;;;;;5013651;28;20140;-68
2020/12/04 09:17:25;;;;;;;16.75;8.75;;;4.30;8.60;;;;;;5013584;28;20133;-69
2020/12/04 09:19:52;;;;;;;17.05;8.77;;;4.50;8.60;;;;;;5013184;28;20487;-66
2020/12/04 09:22:19;;;;;;;17.38;8.85;;;4.40;8.60;;;;;;5013486;28;20064;-68
2020/12/04 09:24:46;;;;;;;26.02;9.38;;;4.40;8.60;;;;;;5013626;28;20054;-65
2020/12/04 09:27:12;;;;;;;36.97;8.70;;;4.40;8.60;;;;;;5012171;28;20420;-70
2020/12/04 09:29:39;;;;;;;17.45;8.70;;;4.60;8.20;;;;;;5013368;28;20053;-66
2020/12/04 09:32:09;;;;;;;24.05;8.90;;;4.70;8.20;;;;;;5013233;28;20054;-67
2020/12/04 09:34:36;;;;;;;16.27;8.95;;;4.80;7.70;;;;;;5003555;28;20042;-75
2020/12/04 09:37:11;;;;;;;21.58;9.10;;;4.70;7.90;;;;;;4999273;28;20527;-74
2020/12/04 09:39:39;;;;;;;17.88;9.30;;;4.60;8.70;;;;;;5000673;28;20057;-74
2020/12/04 09:42:07;;;;;;;27.27;9.50;;;4.70;8.80;;;;;;5003886;28;20133;-74
2020/12/04 09:44:35;;;;;;;29.42;10.95;;;4.60;8.80;;;;;;5002531;28;20074;-74
2020/12/04 09:47:02;;;;;;;17.17;8.73;;;4.50;8.70;;;;;;5000846;28;20074;-75
2020/12/04 09:49:29;;;;;;;18.42;10.60;;;4.70;8.80;;;;;;5003997;28;20060;-75
2020/12/04 09:51:58;;;;;;;22.25;10.60;;;4.70;8.90;;;;;;5001889;28;20420;-68
2020/12/04 09:54:26;;;;;;;20.23;10.90;;;4.80;8.90;;;;;;5002046;28;20045;-69
2020/12/04 09:56:54;;;;;;;23.13;10.38;;;4.70;8.80;;;;;;5001652;28;20601;-70
2020/12/04 09:59:21;;;;;;;23.50;10.13;;;4.80;8.90;;;;;;5000294;28;20056;-69
2020/12/04 10:01:49;;;;;;;20.48;9.50;;;4.70;7.80;;;;;;5001792;28;20057;-68
2020/12/04 10:04:17;;;;;;;14.77;9.25;;;4.90;8.00;;;;;;5002280;28;20041;-69
2020/12/04 10:06:45;;;;;;;25.38;10.40;;;4.70;7.70;;;;;;4998938;28;20046;-69
2020/12/04 10:09:13;;;;;;;24.75;10.40;;;4.80;8.00;;;;;;5003051;28;20060;-72
2020/12/04 10:11:41;;;;;;;16.20;8.75;;;4.80;7.60;;;;;;5002058;28;20520;-69
2020/12/04 10:14:08;;;;;;;16.98;8.95;;;4.80;7.80;;;;;;5000677;28;20504;-68
2020/12/04 10:16:36;;;;;;;18.08;9.55;;;4.60;7.70;;;;;;4999615;28;20046;-70
2020/12/04 10:19:03;;;;;;;18.77;9.38;;;4.70;7.90;;;;;;5002194;28;20046;-69
2020/12/04 10:21:33;;;;;;;14.65;8.60;;;4.60;8.40;;;;;;5000417;28;20054;-69
2020/12/04 10:24:01;;;;;;;16.70;8.55;;;4.60;8.30;;;;;;5001057;28;20150;-69
2020/12/04 10:26:28;;;;;;;15.60;8.50;;;4.70;8.30;;;;;;5001807;28;20080;-69
2020/12/04 10:28:55;;;;;;;16.15;8.73;;;4.60;8.50;;;;;;5002576;28;20046;-68
2020/12/04 10:31:22;;;;;;;15.88;8.73;;;4.60;8.30;;;;;;5001833;28;20134;-69
2020/12/04 10:33:49;;;;;;;18.45;8.80;;;4.60;8.70;;;;;;5001856;28;20045;-68
2020/12/04 10:36:16;;;;;;;19.50;8.55;;;4.70;8.80;;;;;;5000907;28;20048;-68
2020/12/04 10:38:43;;;;;;;16.85;9.85;;;4.70;8.90;;;;;;5000460;28;20051;-67
2020/12/04 10:41:10;;;;;;;19.42;9.07;;;4.70;8.80;;;;;;5001641;28;20058;-69
2020/12/04 10:43:37;;;;;;;16.83;9.75;;;4.70;8.80;;;;;;5000117;28;20050;-67
2020/12/04 10:46:04;;;;;;;19.85;8.90;;;4.70;9.70;;;;;;4999950;28;20052;-69
2020/12/04 10:48:31;;;;;;;20.30;9.25;;;4.80;8.90;;;;;;5000906;28;20053;-67
2020/12/04 10:50:59;;;;;;;19.42;9.00;;;4.80;8.90;;;;;;5001685;28;20052;-68
2020/12/04 10:53:28;;;;;;;19.27;9.80;;;4.80;8.90;;;;;;5001119;28;20133;-68
2020/12/04 10:55:55;;;;;;;18.80;8.77;;;4.70;8.80;;;;;;4999932;28;20060;-69
2020/12/04 10:58:23;;;;;;;17.67;9.45;;;4.70;8.70;;;;;;5001672;28;20056;-68
2020/12/04 11:00:51;;;;;;;15.18;8.32;;;4.70;8.80;;;;;;5002950;28;20046;-67
2020/12/04 11:03:30;;;;;;;28.23;10.15;;;4.80;8.90;;;;;;4999564;28;20499;-68
2020/12/04 11:05:56;;;;;;;14.48;8.43;;;4.80;8.90;;;;;;4999439;28;20050;-69
2020/12/04 11:08:23;;;;;;;23.13;12.15;;;4.80;7.40;;;;;;5000394;28;20659;-68
2020/12/04 11:10:50;;;;;;;18.20;8.38;;;5.00;8.20;;;;;;5001451;28;20042;-68
2020/12/04 11:13:17;;;;;;;16.73;8.35;;;5.00;6.70;;;;;;5000887;28;20046;-68
2020/12/04 11:15:45;;;;;;;14.88;8.45;;;5.00;6.40;;;;;;5000077;28;20047;-67
2020/12/04 11:18:13;;;;;;;16.80;9.73;;;5.00;7.30;;;;;;4999326;28;20132;-68
2020/12/04 11:20:40;;;;;;;18.55;9.45;;;5.00;9.00;;;;;;5001282;28;20061;-69
2020/12/04 11:23:07;;;;;;;16.02;8.82;;;4.90;9.60;;;;;;5001858;28;20042;-67
2020/12/04 11:25:34;;;;;;;21.05;9.35;;;4.90;8.90;;;;;;4999368;28;20054;-67
2020/12/04 11:28:00;;;;;;;16.38;9.30;;;4.80;10.80;;;;;;4999157;28;20407;-67
2020/12/04 11:30:28;;;;;;;17.50;8.98;;;4.80;11.00;;;;;;5000049;28;20057;-67
2020/12/04 11:32:56;;;;;;;16.20;8.55;;;4.80;11.60;;;;;;5001724;28;20045;-66
2020/12/04 11:35:23;;;;;;;19.77;9.43;;;4.90;10.80;;;;;;5001520;28;20093;-68
2020/12/04 11:37:50;;;;;;;14.70;9.32;;;5.00;9.70;;;;;;5002379;28;20085;-68
2020/12/04 11:40:18;;;;;;;17.90;9.93;;;5.00;9.00;;;;;;4999379;28;20053;-68
2020/12/04 11:42:46;;;;;;;26.02;11.65;;;4.90;8.90;;;;;;5001583;28;20133;-68
2020/12/04 11:45:15;;;;;;;16.35;9.48;;;5.10;9.10;;;;;;4998936;28;20393;-67
2020/12/04 11:47:43;;;;;;;18.02;9.70;;;4.90;8.90;;;;;;4997931;28;20540;-68
2020/12/04 11:50:12;;;;;;;25.90;13.65;;;4.90;8.90;;;;;;5000080;28;20047;-68
2020/12/04 11:52:39;;;;;;;21.33;10.63;;;4.90;9.80;;;;;;5003728;28;20415;-67
2020/12/04 11:55:07;;;;;;;17.05;10.18;;;4.80;10.00;;;;;;5004423;28;20045;-68
2020/12/04 11:57:34;;;;;;;18.30;10.20;;;4.80;10.30;;;;;;5001655;28;20053;-69
2020/12/04 12:00:04;;;;;;;17.05;9.13;;;5.00;10.00;;;;;;5005949;28;20042;-68
2020/12/04 12:02:31;;;;;;;16.20;9.23;;;5.00;9.90;;;;;;5002812;28;20491;-68
2020/12/04 12:04:57;;;;;;;40.67;21.90;;;5.10;9.00;;;;;;5003995;28;20164;-69
2020/12/04 12:07:25;;;;;;;25.13;11.57;;;5.10;9.10;;;;;;5002024;28;20046;-68
2020/12/04 12:09:52;;;;;;;15.45;8.73;;;5.10;9.00;;;;;;5003030;28;20046;-68
2020/12/04 12:12:19;;;;;;;14.90;8.63;;;5.00;9.00;;;;;;5002079;28;20053;-70
2020/12/04 12:14:46;;;;;;;20.17;9.65;;;4.90;9.30;;;;;;5001367;28;20069;-69
2020/12/04 12:17:14;;;;;;;17.70;9.13;;;4.80;10.10;;;;;;5001572;28;20042;-68
2020/12/04 12:19:42;;;;;;;17.75;8.82;;;4.90;10.20;;;;;;5002067;28;20057;-68
2020/12/04 12:22:09;;;;;;;16.67;9.23;;;4.90;10.50;;;;;;5000841;28;20519;-68
2020/12/04 12:24:38;;;;;;;20.75;10.77;;;4.90;11.00;;;;;;5001914;28;20496;-67
2020/12/04 12:27:05;;;;;;;16.83;9.45;;;4.90;11.50;;;;;;4999386;28;20046;-68
2020/12/04 12:29:32;;;;;;;22.23;11.30;;;4.70;11.60;;;;;;5004184;28;20064;-68
2020/12/04 12:31:59;;;;;;;18.05;9.77;;;4.70;12.00;;;;;;5004092;28;20042;-69
2020/12/04 12:35:00;;;;;;;19.80;11.50;;;4.80;12.00;;;;;;5003873;28;20064;-68
2020/12/04 12:37:14;;;;;;;16.95;9.88;;;4.70;12.30;;;;;;5002091;28;20056;-68
2020/12/04 12:39:42;;;;;;;16.73;9.68;;;4.80;12.50;;;;;;5003749;28;20045;-68
2020/12/04 12:42:10;;;;;;;15.95;9.43;;;4.80;12.70;;;;;;5004104;28;20050;-68
2020/12/04 12:44:37;;;;;;;14.40;8.82;;;4.90;12.40;;;;;;5004325;28;20052;-68
2020/12/04 12:47:05;;;;;;;20.67;9.05;;;4.70;12.80;;;;;;5000410;28;20056;-68
2020/12/04 12:49:33;;;;;;;16.45;9.40;;;4.70;13.30;;;;;;4993607;28;20480;-69
2020/12/04 12:52:00;;;;;;;17.02;9.82;;;4.70;13.40;;;;;;4999911;28;20060;-68
2020/12/04 12:54:27;;;;;;;17.95;8.85;;;4.80;13.60;;;;;;5000747;28;20064;-68